sensor_id;sensor_type;location;lat;lon;timestamp;pressure;altitude;pressure_sealevel;temperature;humidity
56630;BME280;42502;40.732;-74.254;2023-02-13T00:01:52;100130.53;;;18.38;35.52
56630;BME280;42502;40.732;-74.254;2023-02-13T00:03:53;100122.97;;;18.39;35.61
56630;BME280;42502;40.732;-74.254;2023-02-13T00:05:54;100129.03;;;18.41;35.51
56630;BME280;42502;40.732;-74.254;2023-02-13T00:07:55;100125.78;;;18.39;35.28
56630;BME280;42502;40.732;-74.254;2023-02-13T00:09:56;100118.09;;;18.36;35.37
56630;BME280;42502;40.732;-74.254;2023-02-13T00:11:57;100112.59;;;18.39;35.17
56630;BME280;42502;40.732;-74.254;2023-02-13T00:14:00;100106.56;;;18.37;35.06
56630;BME280;42502;40.732;-74.254;2023-02-13T00:16:03;100098.16;;;18.37;35.32
56630;BME280;42502;40.732;-74.254;2023-02-13T00:18:04;100090.00;;;18.32;35.18
56630;BME280;42502;40.732;-74.254;2023-02-13T00:20:05;100088.50;;;18.35;35.02
56630;BME280;42502;40.732;-74.254;2023-02-13T00:22:07;100094.09;;;18.35;35.15
56630;BME280;42502;40.732;-74.254;2023-02-13T00:24:15;100086.41;;;18.32;35.19
56630;BME280;42502;40.732;-74.254;2023-02-13T00:26:16;100086.03;;;18.33;35.32
56630;BME280;42502;40.732;-74.254;2023-02-13T00:28:17;100089.19;;;18.32;34.92
56630;BME280;42502;40.732;-74.254;2023-02-13T00:30:19;100083.03;;;18.26;34.91
56630;BME280;42502;40.732;-74.254;2023-02-13T00:32:21;100087.56;;;18.31;35.04
56630;BME280;42502;40.732;-74.254;2023-02-13T00:34:21;100085.00;;;18.25;35.12
56630;BME280;42502;40.732;-74.254;2023-02-13T00:36:23;100085.25;;;18.20;35.11
56630;BME280;42502;40.732;-74.254;2023-02-13T00:38:24;100090.25;;;18.27;34.85
56630;BME280;42502;40.732;-74.254;2023-02-13T00:40:25;100100.84;;;18.21;34.92
56630;BME280;42502;40.732;-74.254;2023-02-13T00:42:25;100108.88;;;18.23;35.09
56630;BME280;42502;40.732;-74.254;2023-02-13T00:44:26;100114.47;;;18.23;35.04
56630;BME280;42502;40.732;-74.254;2023-02-13T00:46:27;100107.16;;;18.18;34.59
56630;BME280;42502;40.732;-74.254;2023-02-13T00:48:29;100113.31;;;18.24;34.86
56630;BME280;42502;40.732;-74.254;2023-02-13T00:50:30;100108.78;;;18.19;34.94
56630;BME280;42502;40.732;-74.254;2023-02-13T00:52:31;100119.97;;;18.19;34.86
56630;BME280;42502;40.732;-74.254;2023-02-13T00:54:32;100124.03;;;18.22;34.91
56630;BME280;42502;40.732;-74.254;2023-02-13T00:56:33;100124.38;;;18.20;34.93
56630;BME280;42502;40.732;-74.254;2023-02-13T00:58:34;100127.19;;;18.20;35.08
56630;BME280;42502;40.732;-74.254;2023-02-13T01:00:35;100119.97;;;18.19;34.90
56630;BME280;42502;40.732;-74.254;2023-02-13T01:02:35;100111.34;;;18.12;34.76
56630;BME280;42502;40.732;-74.254;2023-02-13T01:04:36;100108.31;;;18.17;34.78
56630;BME280;42502;40.732;-74.254;2023-02-13T01:06:37;100092.59;;;18.13;34.64
56630;BME280;42502;40.732;-74.254;2023-02-13T01:08:42;100105.31;;;18.10;34.56
56630;BME280;42502;40.732;-74.254;2023-02-13T01:10:44;100105.06;;;18.15;34.73
56630;BME280;42502;40.732;-74.254;2023-02-13T01:12:45;100095.03;;;18.14;34.69
56630;BME280;42502;40.732;-74.254;2023-02-13T01:14:46;100099.03;;;18.13;34.90
56630;BME280;42502;40.732;-74.254;2023-02-13T01:16:47;100098.09;;;18.09;34.62
56630;BME280;42502;40.732;-74.254;2023-02-13T01:18:48;100111.34;;;18.12;34.67
56630;BME280;42502;40.732;-74.254;2023-02-13T01:21:00;100115.66;;;18.09;34.64
56630;BME280;42502;40.732;-74.254;2023-02-13T01:23:01;100097.63;;;18.07;34.65
56630;BME280;42502;40.732;-74.254;2023-02-13T01:25:03;100112.88;;;18.09;34.70
56630;BME280;42502;40.732;-74.254;2023-02-13T01:27:07;100105.19;;;18.06;34.73
56630;BME280;42502;40.732;-74.254;2023-02-13T01:29:11;100099.50;;;18.03;34.64
56630;BME280;42502;40.732;-74.254;2023-02-13T01:31:12;100103.44;;;18.02;34.49
56630;BME280;42502;40.732;-74.254;2023-02-13T01:33:13;100107.16;;;18.06;34.40
56630;BME280;42502;40.732;-74.254;2023-02-13T01:35:38;100122.31;;;18.05;34.88
56630;BME280;42502;40.732;-74.254;2023-02-13T01:37:40;100131.03;;;18.03;34.61
56630;BME280;42502;40.732;-74.254;2023-02-13T01:39:41;100140.25;;;18.04;34.40
56630;BME280;42502;40.732;-74.254;2023-02-13T01:41:45;100133.72;;;18.00;34.54
56630;BME280;42502;40.732;-74.254;2023-02-13T01:43:53;100138.63;;;18.03;34.45
56630;BME280;42502;40.732;-74.254;2023-02-13T01:45:56;100132.22;;;18.02;34.45
56630;BME280;42502;40.732;-74.254;2023-02-13T01:48:18;100126.16;;;18.00;34.75
56630;BME280;42502;40.732;-74.254;2023-02-13T01:52:26;100128.69;;;17.93;34.41
56630;BME280;42502;40.732;-74.254;2023-02-13T01:54:30;100135.72;;;17.99;34.54
56630;BME280;42502;40.732;-74.254;2023-02-13T01:56:48;100123.25;;;17.97;34.49
56630;BME280;42502;40.732;-74.254;2023-02-13T01:58:52;100110.91;;;17.98;34.67
56630;BME280;42502;40.732;-74.254;2023-02-13T02:00:54;100103.56;;;17.93;34.40
56630;BME280;42502;40.732;-74.254;2023-02-13T02:03:45;100093.66;;;17.96;34.52
56630;BME280;42502;40.732;-74.254;2023-02-13T02:05:27;100098.44;;;17.95;34.40
56630;BME280;42502;40.732;-74.254;2023-02-13T02:07:33;100090.28;;;17.90;34.29
56630;BME280;42502;40.732;-74.254;2023-02-13T02:09:42;100089.59;;;17.93;34.36
56630;BME280;42502;40.732;-74.254;2023-02-13T02:14:16;100066.78;;;17.91;34.37
56630;BME280;42502;40.732;-74.254;2023-02-13T02:16:16;100056.25;;;17.88;34.35
56630;BME280;42502;40.732;-74.254;2023-02-13T02:18:20;100036.69;;;17.88;34.20
56630;BME280;42502;40.732;-74.254;2023-02-13T02:32:08;99968.63;;;17.80;34.25
56630;BME280;42502;40.732;-74.254;2023-02-13T02:43:57;99941.47;;;17.81;34.17
56630;BME280;42502;40.732;-74.254;2023-02-13T02:48:25;99925.06;;;17.79;34.09
56630;BME280;42502;40.732;-74.254;2023-02-13T02:57:47;99917.75;;;17.74;34.31
56630;BME280;42502;40.732;-74.254;2023-02-13T03:00:08;99902.03;;;17.70;33.95
56630;BME280;42502;40.732;-74.254;2023-02-13T03:02:31;99900.53;;;17.72;34.15
56630;BME280;42502;40.732;-74.254;2023-02-13T03:04:56;99904.13;;;17.73;34.15
56630;BME280;42502;40.732;-74.254;2023-02-13T03:07:19;99886.47;;;17.69;34.11
56630;BME280;42502;40.732;-74.254;2023-02-13T03:09:28;99882.75;;;17.65;34.17
56630;BME280;42502;40.732;-74.254;2023-02-13T03:11:52;99885.19;;;17.66;34.12
56630;BME280;42502;40.732;-74.254;2023-02-13T03:14:17;99886.47;;;17.69;34.30
56630;BME280;42502;40.732;-74.254;2023-02-13T03:16:22;99873.44;;;17.61;34.00
56630;BME280;42502;40.732;-74.254;2023-02-13T03:18:45;99870.88;;;17.68;34.00
56630;BME280;42502;40.732;-74.254;2023-02-13T03:22:08;99871.22;;;17.66;33.88
56630;BME280;42502;40.732;-74.254;2023-02-13T03:24:19;99867.59;;;17.66;34.01
56630;BME280;42502;40.732;-74.254;2023-02-13T03:27:22;99865.16;;;17.64;34.31
56630;BME280;42502;40.732;-74.254;2023-02-13T03:34:33;99845.16;;;17.62;34.12
56630;BME280;42502;40.732;-74.254;2023-02-13T03:37:00;99832.25;;;17.57;34.09
56630;BME280;42502;40.732;-74.254;2023-02-13T03:41:39;99824.31;;;17.59;33.91
56630;BME280;42502;40.732;-74.254;2023-02-13T03:45:47;99805.84;;;17.55;33.98
56630;BME280;42502;40.732;-74.254;2023-02-13T03:47:57;99814.34;;;17.58;33.75
56630;BME280;42502;40.732;-74.254;2023-02-13T03:50:01;99811.91;;;17.57;34.05
56630;BME280;42502;40.732;-74.254;2023-02-13T03:52:10;99809.91;;;17.57;33.88
56630;BME280;42502;40.732;-74.254;2023-02-13T03:54:19;99794.84;;;17.46;33.71
56630;BME280;42502;40.732;-74.254;2023-02-13T03:56:22;99813.06;;;17.56;33.99
56630;BME280;42502;40.732;-74.254;2023-02-13T03:58:49;99814.69;;;17.57;33.82
56630;BME280;42502;40.732;-74.254;2023-02-13T04:01:11;99822.25;;;17.56;33.60
56630;BME280;42502;40.732;-74.254;2023-02-13T04:05:42;99806.47;;;17.48;33.95
56630;BME280;42502;40.732;-74.254;2023-02-13T04:07:44;99806.56;;;17.52;33.61
56630;BME280;42502;40.732;-74.254;2023-02-13T04:09:48;99805.31;;;17.49;33.83
56630;BME280;42502;40.732;-74.254;2023-02-13T04:12:01;99803.31;;;17.50;33.70
56630;BME280;42502;40.732;-74.254;2023-02-13T04:14:19;99811.34;;;17.51;33.95
56630;BME280;42502;40.732;-74.254;2023-02-13T04:18:34;99769.44;;;17.51;33.69
56630;BME280;42502;40.732;-74.254;2023-02-13T04:20:35;99760.16;;;17.47;33.48
56630;BME280;42502;40.732;-74.254;2023-02-13T04:22:44;99748.63;;;17.49;33.59
56630;BME280;42502;40.732;-74.254;2023-02-13T04:24:45;99741.78;;;17.46;33.46
56630;BME280;42502;40.732;-74.254;2023-02-13T04:26:46;99734.66;;;17.49;33.45
56630;BME280;42502;40.732;-74.254;2023-02-13T04:28:47;99727.81;;;17.46;33.60
56630;BME280;42502;40.732;-74.254;2023-02-13T04:30:50;99722.69;;;17.48;33.48
56630;BME280;42502;40.732;-74.254;2023-02-13T04:32:51;99722.69;;;17.48;33.65
56630;BME280;42502;40.732;-74.254;2023-02-13T04:34:52;99707.09;;;17.47;33.75
56630;BME280;42502;40.732;-74.254;2023-02-13T04:36:56;99696.28;;;17.46;33.74
56630;BME280;42502;40.732;-74.254;2023-02-13T04:38:57;99699.06;;;17.46;33.60
56630;BME280;42502;40.732;-74.254;2023-02-13T04:40:58;99706.66;;;17.45;33.81
56630;BME280;42502;40.732;-74.254;2023-02-13T04:43:01;99698.97;;;17.42;33.65
56630;BME280;42502;40.732;-74.254;2023-02-13T04:45:06;99650.38;;;17.15;33.42
56630;BME280;42502;40.732;-74.254;2023-02-13T04:47:07;99688.25;;;17.44;33.42
56630;BME280;42502;40.732;-74.254;2023-02-13T04:49:10;99687.47;;;17.44;33.60
56630;BME280;42502;40.732;-74.254;2023-02-13T04:51:11;99683.88;;;17.43;33.36
56630;BME280;42502;40.732;-74.254;2023-02-13T04:53:12;99683.03;;;17.43;33.58
56630;BME280;42502;40.732;-74.254;2023-02-13T04:55:13;99671.88;;;17.43;33.65
56630;BME280;42502;40.732;-74.254;2023-02-13T04:57:14;99672.59;;;17.39;33.41
56630;BME280;42502;40.732;-74.254;2023-02-13T04:59:15;99678.63;;;17.42;33.51
56630;BME280;42502;40.732;-74.254;2023-02-13T05:01:18;99665.03;;;17.40;33.47
56630;BME280;42502;40.732;-74.254;2023-02-13T05:03:19;99660.59;;;17.39;33.44
56630;BME280;42502;40.732;-74.254;2023-02-13T05:05:20;99646.66;;;17.39;33.25
56630;BME280;42502;40.732;-74.254;2023-02-13T05:07:24;99641.88;;;17.39;33.67
56630;BME280;42502;40.732;-74.254;2023-02-13T05:09:25;99623.75;;;17.33;33.41
56630;BME280;42502;40.732;-74.254;2023-02-13T05:11:28;99630.25;;;17.37;33.33
56630;BME280;42502;40.732;-74.254;2023-02-13T05:13:29;99633.84;;;17.38;33.46
56630;BME280;42502;40.732;-74.254;2023-02-13T05:15:30;99637.00;;;17.36;33.50
56630;BME280;42502;40.732;-74.254;2023-02-13T05:17:34;99624.56;;;17.34;33.33
56630;BME280;42502;40.732;-74.254;2023-02-13T05:19:34;99618.63;;;17.35;33.41
56630;BME280;42502;40.732;-74.254;2023-02-13T05:21:38;99604.84;;;17.27;33.40
56630;BME280;42502;40.732;-74.254;2023-02-13T05:23:57;99599.44;;;17.34;33.58
56630;BME280;42502;40.732;-74.254;2023-02-13T05:25:58;99602.94;;;17.31;33.60
56630;BME280;42502;40.732;-74.254;2023-02-13T05:27:59;99614.59;;;17.33;33.38
56630;BME280;42502;40.732;-74.254;2023-02-13T05:30:00;99602.13;;;17.30;33.30
56630;BME280;42502;40.732;-74.254;2023-02-13T05:32:01;99589.69;;;17.28;33.32
56630;BME280;42502;40.732;-74.254;2023-02-13T05:34:02;99591.41;;;17.32;33.37
56630;BME280;42502;40.732;-74.254;2023-02-13T05:36:03;99588.97;;;17.31;33.50
56630;BME280;42502;40.732;-74.254;2023-02-13T05:38:04;99574.94;;;17.27;33.30
56630;BME280;42502;40.732;-74.254;2023-02-13T05:40:09;99587.38;;;17.30;33.20
56630;BME280;42502;40.732;-74.254;2023-02-13T05:42:10;99575.38;;;17.29;33.50
56630;BME280;42502;40.732;-74.254;2023-02-13T05:44:12;99573.78;;;17.28;33.59
56630;BME280;42502;40.732;-74.254;2023-02-13T05:46:14;99567.38;;;17.28;33.21
56630;BME280;42502;40.732;-74.254;2023-02-13T05:48:18;99570.53;;;17.26;33.53
56630;BME280;42502;40.732;-74.254;2023-02-13T05:50:21;99560.91;;;17.23;33.31
56630;BME280;42502;40.732;-74.254;2023-02-13T05:52:22;99557.56;;;17.18;33.44
56630;BME280;42502;40.732;-74.254;2023-02-13T05:54:26;99548.03;;;17.19;33.16
56630;BME280;42502;40.732;-74.254;2023-02-13T05:56:32;99543.25;;;17.19;33.47
56630;BME280;42502;40.732;-74.254;2023-02-13T05:58:34;99549.75;;;17.23;33.38
56630;BME280;42502;40.732;-74.254;2023-02-13T06:00:34;99544.16;;;17.23;33.40
56630;BME280;42502;40.732;-74.254;2023-02-13T06:02:35;99537.75;;;17.23;33.46
56630;BME280;42502;40.732;-74.254;2023-02-13T06:04:39;99521.19;;;17.14;33.51
56630;BME280;42502;40.732;-74.254;2023-02-13T06:06:43;99539.75;;;17.22;33.55
56630;BME280;42502;40.732;-74.254;2023-02-13T06:08:45;99526.84;;;17.18;33.42
56630;BME280;42502;40.732;-74.254;2023-02-13T06:10:46;99515.13;;;17.12;33.51
56630;BME280;42502;40.732;-74.254;2023-02-13T06:12:47;99533.72;;;17.20;33.57
56630;BME280;42502;40.732;-74.254;2023-02-13T06:14:51;99526.41;;;17.16;33.28
56630;BME280;42502;40.732;-74.254;2023-02-13T06:16:54;99527.22;;;17.16;33.18
56630;BME280;42502;40.732;-74.254;2023-02-13T06:18:55;99503.53;;;17.10;33.19
56630;BME280;42502;40.732;-74.254;2023-02-13T06:20:56;99520.47;;;17.17;33.44
56630;BME280;42502;40.732;-74.254;2023-02-13T06:22:59;99521.63;;;17.16;33.61
56630;BME280;42502;40.732;-74.254;2023-02-13T06:24:59;99512.81;;;17.14;33.24
56630;BME280;42502;40.732;-74.254;2023-02-13T06:27:00;99514.41;;;17.15;33.30
56630;BME280;42502;40.732;-74.254;2023-02-13T06:29:04;99499.13;;;17.09;33.33
56630;BME280;42502;40.732;-74.254;2023-02-13T06:31:05;99499.22;;;17.13;33.29
56630;BME280;42502;40.732;-74.254;2023-02-13T06:33:09;99496.78;;;17.11;33.33
56630;BME280;42502;40.732;-74.254;2023-02-13T06:35:09;99494.00;;;17.11;33.25
56630;BME280;42502;40.732;-74.254;2023-02-13T06:37:10;99502.03;;;17.13;33.25
56630;BME280;42502;40.732;-74.254;2023-02-13T06:39:14;99492.28;;;17.07;33.32
56630;BME280;42502;40.732;-74.254;2023-02-13T06:41:15;99487.94;;;17.09;33.17
56630;BME280;42502;40.732;-74.254;2023-02-13T06:43:16;99488.44;;;17.11;33.32
56630;BME280;42502;40.732;-74.254;2023-02-13T06:45:17;99487.59;;;17.11;33.26
56630;BME280;42502;40.732;-74.254;2023-02-13T06:47:18;99483.56;;;17.08;33.27
56630;BME280;42502;40.732;-74.254;2023-02-13T06:49:19;99483.22;;;17.10;33.25
56630;BME280;42502;40.732;-74.254;2023-02-13T06:51:20;99464.03;;;17.08;33.44
56630;BME280;42502;40.732;-74.254;2023-02-13T06:53:21;99468.41;;;17.09;33.25
56630;BME280;42502;40.732;-74.254;2023-02-13T06:55:24;99464.03;;;17.08;33.38
56630;BME280;42502;40.732;-74.254;2023-02-13T06:57:25;99462.66;;;17.02;33.41
56630;BME280;42502;40.732;-74.254;2023-02-13T06:59:26;99459.59;;;17.07;33.39
56630;BME280;42502;40.732;-74.254;2023-02-13T07:01:27;99451.41;;;16.98;33.35
56630;BME280;42502;40.732;-74.254;2023-02-13T07:03:28;99460.69;;;17.02;33.34
56630;BME280;42502;40.732;-74.254;2023-02-13T07:05:32;99461.97;;;17.05;33.49
56630;BME280;42502;40.732;-74.254;2023-02-13T07:07:34;99457.53;;;17.04;33.20
56630;BME280;42502;40.732;-74.254;2023-02-13T07:09:35;99455.09;;;17.02;33.18
56630;BME280;42502;40.732;-74.254;2023-02-13T07:11:36;99448.63;;;16.98;33.19
56630;BME280;42502;40.732;-74.254;2023-02-13T07:13:41;99457.91;;;17.02;33.37
56630;BME280;42502;40.732;-74.254;2023-02-13T07:15:42;99458.25;;;17.01;33.30
56630;BME280;42502;40.732;-74.254;2023-02-13T07:17:45;99450.69;;;17.01;32.96
56630;BME280;42502;40.732;-74.254;2023-02-13T07:19:46;99434.94;;;16.93;33.31
56630;BME280;42502;40.732;-74.254;2023-02-13T07:21:47;99450.59;;;16.98;33.10
56630;BME280;42502;40.732;-74.254;2023-02-13T07:23:48;99445.03;;;16.98;33.25
56630;BME280;42502;40.732;-74.254;2023-02-13T07:25:49;99439.09;;;16.99;33.24
56630;BME280;42502;40.732;-74.254;2023-02-13T07:27:50;99432.97;;;16.94;33.46
56630;BME280;42502;40.732;-74.254;2023-02-13T07:29:50;99441.41;;;16.97;33.10
56630;BME280;42502;40.732;-74.254;2023-02-13T07:31:51;99438.53;;;16.94;33.07
56630;BME280;42502;40.732;-74.254;2023-02-13T07:33:52;99432.25;;;16.97;33.37
56630;BME280;42502;40.732;-74.254;2023-02-13T07:35:53;99439.81;;;16.96;33.33
56630;BME280;42502;40.732;-74.254;2023-02-13T07:37:54;99421.25;;;16.88;32.95
56630;BME280;42502;40.732;-74.254;2023-02-13T07:39:55;99419.81;;;16.94;32.96
56630;BME280;42502;40.732;-74.254;2023-02-13T07:41:59;99405.34;;;16.89;32.98
56630;BME280;42502;40.732;-74.254;2023-02-13T07:44:09;99403.78;;;16.91;32.93
56630;BME280;42502;40.732;-74.254;2023-02-13T07:46:09;99407.78;;;16.90;33.11
56630;BME280;42502;40.732;-74.254;2023-02-13T07:48:10;99396.63;;;16.90;33.04
56630;BME280;42502;40.732;-74.254;2023-02-13T07:50:14;99402.56;;;16.89;33.06
56630;BME280;42502;40.732;-74.254;2023-02-13T07:52:15;99401.38;;;16.90;33.00
56630;BME280;42502;40.732;-74.254;2023-02-13T07:54:16;99394.88;;;16.85;33.20
56630;BME280;42502;40.732;-74.254;2023-02-13T07:56:17;99394.41;;;16.83;33.26
56630;BME280;42502;40.732;-74.254;2023-02-13T07:58:18;99394.19;;;16.89;33.18
56630;BME280;42502;40.732;-74.254;2023-02-13T08:00:20;99384.50;;;16.86;33.28
56630;BME280;42502;40.732;-74.254;2023-02-13T08:02:21;99385.34;;;16.86;33.00
56630;BME280;42502;40.732;-74.254;2023-02-13T08:04:21;99382.56;;;16.86;33.04
56630;BME280;42502;40.732;-74.254;2023-02-13T08:06:23;99372.44;;;16.82;33.26
56630;BME280;42502;40.732;-74.254;2023-02-13T08:08:24;99380.03;;;16.81;33.35
56630;BME280;42502;40.732;-74.254;2023-02-13T08:10:25;99379.59;;;16.79;32.92
56630;BME280;42502;40.732;-74.254;2023-02-13T08:12:47;99377.22;;;16.81;33.17
56630;BME280;42502;40.732;-74.254;2023-02-13T08:14:48;99380.47;;;16.83;33.30
56630;BME280;42502;40.732;-74.254;2023-02-13T08:16:53;99368.06;;;16.81;33.05
56630;BME280;42502;40.732;-74.254;2023-02-13T08:18:57;99366.44;;;16.80;33.18
56630;BME280;42502;40.732;-74.254;2023-02-13T08:20:58;99361.66;;;16.80;33.12
56630;BME280;42502;40.732;-74.254;2023-02-13T08:23:09;99346.13;;;16.79;33.21
56630;BME280;42502;40.732;-74.254;2023-02-13T08:25:11;99350.84;;;16.79;33.30
56630;BME280;42502;40.732;-74.254;2023-02-13T08:27:13;99340.53;;;16.79;32.96
56630;BME280;42502;40.732;-74.254;2023-02-13T08:29:15;99341.69;;;16.78;33.08
56630;BME280;42502;40.732;-74.254;2023-02-13T08:31:34;99347.09;;;16.71;32.94
56630;BME280;42502;40.732;-74.254;2023-02-13T08:33:35;99355.19;;;16.76;33.09
56630;BME280;42502;40.732;-74.254;2023-02-13T08:35:36;99347.09;;;16.71;33.19
56630;BME280;42502;40.732;-74.254;2023-02-13T08:37:37;99346.84;;;16.76;33.11
56630;BME280;42502;40.732;-74.254;2023-02-13T08:39:37;99344.41;;;16.75;32.95
56630;BME280;42502;40.732;-74.254;2023-02-13T08:41:38;99341.88;;;16.69;33.15
56630;BME280;42502;40.732;-74.254;2023-02-13T08:43:39;99354.72;;;16.74;33.14
56630;BME280;42502;40.732;-74.254;2023-02-13T08:45:40;99354.28;;;16.72;32.94
56630;BME280;42502;40.732;-74.254;2023-02-13T08:47:41;99358.69;;;16.73;33.19
56630;BME280;42502;40.732;-74.254;2023-02-13T08:49:42;99358.25;;;16.71;32.81
56630;BME280;42502;40.732;-74.254;2023-02-13T08:51:42;99351.41;;;16.68;33.36
56630;BME280;42502;40.732;-74.254;2023-02-13T08:53:45;99357.44;;;16.70;32.97
56630;BME280;42502;40.732;-74.254;2023-02-13T08:55:53;99360.94;;;16.67;32.99
56630;BME280;42502;40.732;-74.254;2023-02-13T08:57:54;99359.75;;;16.68;32.96
56630;BME280;42502;40.732;-74.254;2023-02-13T08:59:55;99355.25;;;16.64;33.01
56630;BME280;42502;40.732;-74.254;2023-02-13T09:01:56;99367.31;;;16.68;33.05
56630;BME280;42502;40.732;-74.254;2023-02-13T09:04:00;99359.31;;;16.66;33.15
56630;BME280;42502;40.732;-74.254;2023-02-13T09:06:01;99352.31;;;16.57;32.90
56630;BME280;42502;40.732;-74.254;2023-02-13T09:08:02;99358.78;;;16.61;32.80
56630;BME280;42502;40.732;-74.254;2023-02-13T09:10:03;99366.88;;;16.66;33.01
56630;BME280;42502;40.732;-74.254;2023-02-13T09:12:07;99360.47;;;16.65;32.91
56630;BME280;42502;40.732;-74.254;2023-02-13T09:14:08;99363.63;;;16.64;33.04
56630;BME280;42502;40.732;-74.254;2023-02-13T09:16:09;99348.81;;;16.60;33.10
56630;BME280;42502;40.732;-74.254;2023-02-13T09:18:10;99360.84;;;16.64;33.13
56630;BME280;42502;40.732;-74.254;2023-02-13T09:20:12;99362.81;;;16.63;33.02
56630;BME280;42502;40.732;-74.254;2023-02-13T09:22:13;99366.78;;;16.62;33.04
56630;BME280;42502;40.732;-74.254;2023-02-13T09:24:21;99363.19;;;16.62;33.18
56630;BME280;42502;40.732;-74.254;2023-02-13T09:26:22;99360.41;;;16.62;32.82
56630;BME280;42502;40.732;-74.254;2023-02-13T09:28:26;99337.47;;;16.52;32.93
56630;BME280;42502;40.732;-74.254;2023-02-13T09:30:27;99346.75;;;16.57;33.18
56630;BME280;42502;40.732;-74.254;2023-02-13T09:32:28;99347.19;;;16.59;32.90
56630;BME280;42502;40.732;-74.254;2023-02-13T09:34:31;99344.75;;;16.57;32.66
56630;BME280;42502;40.732;-74.254;2023-02-13T09:36:32;99351.13;;;16.58;33.14
56630;BME280;42502;40.732;-74.254;2023-02-13T09:38:36;99343.47;;;16.55;33.14
56630;BME280;42502;40.732;-74.254;2023-02-13T09:42:52;99347.91;;;16.56;32.76
56630;BME280;42502;40.732;-74.254;2023-02-13T09:44:59;99346.25;;;16.55;33.20
56630;BME280;42502;40.732;-74.254;2023-02-13T09:47:31;99350.25;;;16.54;32.95
56630;BME280;42502;40.732;-74.254;2023-02-13T09:49:43;99355.81;;;16.54;32.68
56630;BME280;42502;40.732;-74.254;2023-02-13T09:51:55;99355.72;;;16.50;33.21
56630;BME280;42502;40.732;-74.254;2023-02-13T09:54:00;99360.94;;;16.51;33.08
56630;BME280;42502;40.732;-74.254;2023-02-13T09:59:00;99359.69;;;16.49;33.15
56630;BME280;42502;40.732;-74.254;2023-02-13T10:01:09;99360.84;;;16.48;33.03
56630;BME280;42502;40.732;-74.254;2023-02-13T10:03:56;99366.78;;;16.46;33.05
56630;BME280;42502;40.732;-74.254;2023-02-13T10:06:03;99369.56;;;16.46;32.74
56630;BME280;42502;40.732;-74.254;2023-02-13T10:15:34;99354.63;;;16.39;32.83
56630;BME280;42502;40.732;-74.254;2023-02-13T10:17:44;99353.91;;;16.42;32.95
56630;BME280;42502;40.732;-74.254;2023-02-13T10:20:01;99367.03;;;16.41;33.03
56630;BME280;42502;40.732;-74.254;2023-02-13T10:24:15;99359.84;;;16.40;33.20
56630;BME280;42502;40.732;-74.254;2023-02-13T10:26:27;99357.84;;;16.41;33.11
56630;BME280;42502;40.732;-74.254;2023-02-13T10:28:55;99364.94;;;16.38;33.01
56630;BME280;42502;40.732;-74.254;2023-02-13T10:31:18;99360.81;;;16.32;32.83
56630;BME280;42502;40.732;-74.254;2023-02-13T10:33:28;99373.31;;;16.38;32.88
56630;BME280;42502;40.732;-74.254;2023-02-13T10:35:32;99382.84;;;16.37;33.08
56630;BME280;42502;40.732;-74.254;2023-02-13T10:37:34;99385.53;;;16.33;32.93
56630;BME280;42502;40.732;-74.254;2023-02-13T10:39:35;99389.59;;;16.36;32.83
56630;BME280;42502;40.732;-74.254;2023-02-13T10:46:10;99398.31;;;16.34;32.74
56630;BME280;42502;40.732;-74.254;2023-02-13T10:48:33;99395.06;;;16.32;33.17
56630;BME280;42502;40.732;-74.254;2023-02-13T10:50:44;99401.44;;;16.33;33.27
56630;BME280;42502;40.732;-74.254;2023-02-13T10:59:56;99393.81;;;16.30;32.84
56630;BME280;42502;40.732;-74.254;2023-02-13T11:02:19;99384.63;;;16.29;32.88
56630;BME280;42502;40.732;-74.254;2023-02-13T11:04:21;99369.69;;;16.22;32.94
56630;BME280;42502;40.732;-74.254;2023-02-13T11:06:22;99384.63;;;16.29;33.00
56630;BME280;42502;40.732;-74.254;2023-02-13T11:08:24;99378.25;;;16.29;32.71
56630;BME280;42502;40.732;-74.254;2023-02-13T11:10:26;99386.16;;;16.27;32.68
56630;BME280;42502;40.732;-74.254;2023-02-13T11:12:30;99380.59;;;16.27;33.05
56630;BME280;42502;40.732;-74.254;2023-02-13T11:14:31;99386.16;;;16.27;32.73
56630;BME280;42502;40.732;-74.254;2023-02-13T11:16:56;99380.13;;;16.25;32.92
56630;BME280;42502;40.732;-74.254;2023-02-13T11:18:58;99390.09;;;16.26;33.03
56630;BME280;42502;40.732;-74.254;2023-02-13T11:21:00;99396.84;;;16.25;32.80
56630;BME280;42502;40.732;-74.254;2023-02-13T11:25:25;99397.22;;;16.23;33.00
56630;BME280;42502;40.732;-74.254;2023-02-13T11:27:37;99398.72;;;16.21;33.07
56630;BME280;42502;40.732;-74.254;2023-02-13T11:29:56;99399.44;;;16.17;33.09
56630;BME280;42502;40.732;-74.254;2023-02-13T11:34:24;99415.44;;;16.21;32.87
56630;BME280;42502;40.732;-74.254;2023-02-13T11:36:31;99392.03;;;16.09;32.99
56630;BME280;42502;40.732;-74.254;2023-02-13T11:38:32;99411.03;;;16.20;32.89
56630;BME280;42502;40.732;-74.254;2023-02-13T11:40:33;99406.63;;;16.19;33.19
56630;BME280;42502;40.732;-74.254;2023-02-13T11:42:34;99409.78;;;16.17;33.00
56630;BME280;42502;40.732;-74.254;2023-02-13T11:44:35;99413.38;;;16.17;32.94
56630;BME280;42502;40.732;-74.254;2023-02-13T11:46:45;99412.09;;;16.15;33.07
56630;BME280;42502;40.732;-74.254;2023-02-13T11:51:03;99422.44;;;16.14;33.00
56630;BME280;42502;40.732;-74.254;2023-02-13T11:53:07;99417.66;;;16.15;33.10
56630;BME280;42502;40.732;-74.254;2023-02-13T11:57:36;99413.28;;;16.14;32.97
56630;BME280;42502;40.732;-74.254;2023-02-13T11:59:42;99419.19;;;16.12;33.05
56630;BME280;42502;40.732;-74.254;2023-02-13T12:01:43;99409.94;;;16.08;32.81
56630;BME280;42502;40.732;-74.254;2023-02-13T12:04:13;99423.16;;;16.11;32.86
56630;BME280;42502;40.732;-74.254;2023-02-13T12:06:18;99411.16;;;16.11;32.98
56630;BME280;42502;40.732;-74.254;2023-02-13T12:08:20;99417.56;;;16.11;32.79
56630;BME280;42502;40.732;-74.254;2023-02-13T12:10:25;99418.72;;;16.10;33.04